createdAt,value
2019-03-12T00:00:19.421Z,16.00
2019-03-12T00:01:19.453Z,16.00
2019-03-12T00:02:19.400Z,16.00
2019-03-12T00:03:19.389Z,16.00
2019-03-12T00:04:19.378Z,16.00
2019-03-12T00:05:19.680Z,16.00
2019-03-12T00:06:19.362Z,16.00
2019-03-12T00:07:19.383Z,16.00
2019-03-12T00:08:19.337Z,16.00
2019-03-12T00:09:19.326Z,16.00
2019-03-12T00:10:19.318Z,16.00
2019-03-12T00:11:19.307Z,16.00
2019-03-12T00:12:19.580Z,16.00
2019-03-12T00:13:19.335Z,16.00
2019-03-12T00:14:19.280Z,16.00
2019-03-12T00:15:19.266Z,16.00
2019-03-12T00:16:19.256Z,16.00
2019-03-12T00:17:19.243Z,16.00
2019-03-12T00:18:19.237Z,16.00
2019-03-12T00:19:21.506Z,16.00
2019-03-12T00:20:19.213Z,16.00
2019-03-12T00:21:19.204Z,16.00
2019-03-12T00:22:19.193Z,16.00
2019-03-12T00:23:19.182Z,16.00
2019-03-12T00:24:19.174Z,16.00
2019-03-12T00:25:19.301Z,16.00
2019-03-12T00:26:19.155Z,16.00
2019-03-12T00:27:19.143Z,16.00
2019-03-12T00:28:19.134Z,16.00
2019-03-12T00:29:19.120Z,16.00
2019-03-12T00:30:19.109Z,16.00
2019-03-12T00:31:19.227Z,16.00
2019-03-12T00:32:19.418Z,16.00
2019-03-12T00:33:19.200Z,16.00
2019-03-12T00:34:19.910Z,16.00
2019-03-12T00:35:19.079Z,16.00
2019-03-12T00:36:19.049Z,16.00
2019-03-12T00:37:20.005Z,16.00
2019-03-12T00:44:26.758Z,16.00
2019-03-12T00:45:05.880Z,16.00
2019-03-12T00:46:12.514Z,16.00
2019-03-12T00:47:05.781Z,16.00
2019-03-12T00:48:05.691Z,16.00
2019-03-12T01:05:34.850Z,16.00
2019-03-12T01:06:34.405Z,16.00
2019-03-12T01:07:36.967Z,16.00
2019-03-12T01:13:38.193Z,16.00
2019-03-12T01:14:40.660Z,16.00
2019-03-12T01:15:44.694Z,16.00
2019-03-12T01:16:37.806Z,16.00
2019-03-12T01:24:33.022Z,16.00
2019-03-12T01:26:08.275Z,16.00
2019-03-12T01:30:07.179Z,16.00
2019-03-12T01:31:06.902Z,16.00
2019-03-12T01:32:13.614Z,16.00
2019-03-12T01:33:06.795Z,16.00
2019-03-12T01:39:00.346Z,16.00
2019-03-12T01:40:00.271Z,16.00
2019-03-12T01:54:50.696Z,16.00
2019-03-12T01:55:50.227Z,16.00
2019-03-12T01:56:50.128Z,16.00
2019-03-12T01:57:49.988Z,16.00
2019-03-12T02:16:03.033Z,16.00
2019-03-12T02:27:18.765Z,16.00
2019-03-12T02:31:57.661Z,16.00
2019-03-12T02:33:27.100Z,16.00
2019-03-12T02:33:55.469Z,16.00
2019-03-12T02:35:09.991Z,16.00
2019-03-12T02:43:30.306Z,16.00
2019-03-12T02:44:30.227Z,16.00
2019-03-12T02:45:30.202Z,16.00
2019-03-12T02:46:30.211Z,16.00
2019-03-12T02:47:30.221Z,16.00
2019-03-12T02:48:31.376Z,16.00
2019-03-12T02:57:53.658Z,16.00
2019-03-12T03:02:35.306Z,16.00
2019-03-12T03:03:34.614Z,16.00
2019-03-12T03:04:34.620Z,16.00
2019-03-12T03:05:34.587Z,16.00
2019-03-12T03:06:34.572Z,16.00
2019-03-12T03:07:34.577Z,16.00
2019-03-12T03:08:34.758Z,16.00
2019-03-12T03:09:34.944Z,16.00
2019-03-12T03:10:34.518Z,16.00
2019-03-12T03:11:34.647Z,16.00
2019-03-12T03:12:34.498Z,16.00
2019-03-12T03:13:34.499Z,16.00
2019-03-12T03:14:34.528Z,16.00
2019-03-12T03:15:34.475Z,16.00
2019-03-12T03:16:34.783Z,16.00
2019-03-12T03:17:34.447Z,16.00
2019-03-12T03:18:34.442Z,16.00
2019-03-12T03:19:34.452Z,16.00
2019-03-12T03:20:34.492Z,16.00
2019-03-12T03:21:34.408Z,16.00
2019-03-12T03:22:34.404Z,16.00
2019-03-12T03:23:34.744Z,16.00
2019-03-12T03:24:34.381Z,16.00
2019-03-12T03:25:34.364Z,16.00
2019-03-12T03:26:34.422Z,16.00
2019-03-12T03:27:34.350Z,16.00
2019-03-12T03:28:34.357Z,16.00
2019-03-12T03:29:34.358Z,16.00
2019-03-12T03:30:34.700Z,16.00
2019-03-12T03:31:34.399Z,16.00
2019-03-12T03:32:34.343Z,16.00
2019-03-12T03:33:34.317Z,16.00
2019-03-12T03:34:34.265Z,16.00
2019-03-12T03:35:34.269Z,16.00
2019-03-12T03:36:34.269Z,16.00
2019-03-12T03:37:34.599Z,16.00
2019-03-12T03:38:34.322Z,16.00
2019-03-12T03:39:34.221Z,16.00
2019-03-12T03:40:34.249Z,16.00
2019-03-12T03:41:35.021Z,16.00
2019-03-12T03:42:34.210Z,16.00
2019-03-12T03:43:34.177Z,16.00
2019-03-12T03:44:34.567Z,16.00
2019-03-12T03:45:34.172Z,16.00
2019-03-12T03:46:34.149Z,16.00
2019-03-12T03:47:34.170Z,16.00
2019-03-12T03:48:34.804Z,16.00
2019-03-12T03:49:34.137Z,16.00
2019-03-12T03:50:34.147Z,16.00
2019-03-12T03:51:34.792Z,16.00
2019-03-12T03:52:34.167Z,16.00
2019-03-12T03:53:34.089Z,16.00
2019-03-12T03:54:34.082Z,16.00
2019-03-12T03:55:34.044Z,16.00
2019-03-12T03:56:34.125Z,16.00
2019-03-12T03:57:34.029Z,16.00
2019-03-12T03:58:35.201Z,16.00
2019-03-12T03:59:34.006Z,16.00
2019-03-12T04:00:34.018Z,16.00
2019-03-12T04:01:34.007Z,16.00
2019-03-12T04:02:34.038Z,16.00
2019-03-12T04:03:33.974Z,16.00
2019-03-12T04:04:33.948Z,16.00
2019-03-12T04:05:34.311Z,16.00
2019-03-12T04:06:34.520Z,16.00
2019-03-12T04:07:33.947Z,16.00
2019-03-12T04:08:34.008Z,16.00
2019-03-12T04:09:33.923Z,16.00
2019-03-12T04:10:33.884Z,16.00
2019-03-12T04:11:33.860Z,16.00
2019-03-12T04:12:34.228Z,16.00
2019-03-12T04:13:33.863Z,16.00
2019-03-12T04:14:34.179Z,16.00
2019-03-12T04:15:33.850Z,16.00
2019-03-12T04:16:33.837Z,16.00
2019-03-12T04:17:33.795Z,16.00
2019-03-12T04:18:33.810Z,16.00
2019-03-12T04:19:34.147Z,16.00
2019-03-12T04:20:33.836Z,16.00
2019-03-12T04:21:33.780Z,20.00
2019-03-12T04:22:33.749Z,16.00
2019-03-12T04:23:33.734Z,16.00
2019-03-12T04:24:33.747Z,16.00
2019-03-12T04:25:33.818Z,16.00
2019-03-12T04:26:34.056Z,16.00
2019-03-12T04:27:33.738Z,16.00
2019-03-12T04:28:34.059Z,16.00
2019-03-12T04:29:33.691Z,16.00
2019-03-12T04:30:33.702Z,16.00
2019-03-12T04:31:33.672Z,16.00
2019-03-12T04:32:34.006Z,16.00
2019-03-12T04:33:33.977Z,16.00
2019-03-12T04:34:33.616Z,16.00
2019-03-12T04:35:33.603Z,16.00
2019-03-12T04:36:33.639Z,16.00
2019-03-12T04:37:33.613Z,16.00
2019-03-12T04:38:33.658Z,16.00
2019-03-12T04:39:33.625Z,16.00
2019-03-12T04:40:34.000Z,16.00
2019-03-12T04:41:33.560Z,16.00
2019-03-12T04:42:33.562Z,16.00
2019-03-12T04:43:33.587Z,16.00
2019-03-12T04:44:33.571Z,16.00
2019-03-12T04:45:33.615Z,16.00
2019-03-12T04:46:33.513Z,16.00
2019-03-12T04:47:33.839Z,16.00
2019-03-12T04:48:33.489Z,16.00
2019-03-12T04:49:33.479Z,16.00
2019-03-12T04:50:33.538Z,16.00
2019-03-12T04:51:33.491Z,16.00
2019-03-12T04:52:33.434Z,16.00
2019-03-12T04:53:33.433Z,16.00
2019-03-12T04:54:34.045Z,16.00
2019-03-12T04:55:33.669Z,16.00
2019-03-12T04:56:33.469Z,16.00
2019-03-12T04:57:33.413Z,16.00
2019-03-12T04:58:33.367Z,16.00
2019-03-12T04:59:33.393Z,16.00
2019-03-12T05:00:33.599Z,16.00
2019-03-12T05:01:33.898Z,16.00
2019-03-12T05:02:34.436Z,16.00
2019-03-12T05:03:33.371Z,16.00
2019-03-12T05:04:33.317Z,16.00
2019-03-12T05:05:33.596Z,16.00
2019-03-12T05:06:33.473Z,16.00
2019-03-12T05:07:33.447Z,20.00
2019-03-12T05:08:34.516Z,16.00
2019-03-12T05:09:33.496Z,16.00
2019-03-12T05:10:33.470Z,16.00
2019-03-12T05:11:33.248Z,16.00
2019-03-12T05:12:33.224Z,16.00
2019-03-12T05:13:33.228Z,20.00
2019-03-12T05:14:33.245Z,20.00
2019-03-12T05:15:33.524Z,20.00
2019-03-12T05:16:33.199Z,16.00
2019-03-12T05:17:33.178Z,16.00
2019-03-12T05:18:33.168Z,20.00
2019-03-12T05:19:33.153Z,16.00
2019-03-12T05:20:33.188Z,20.00
2019-03-12T05:21:33.133Z,20.00
2019-03-12T05:22:33.128Z,20.00
2019-03-12T05:23:33.131Z,24.00
2019-03-12T05:24:33.196Z,20.00
2019-03-12T05:25:33.078Z,20.00
2019-03-12T05:26:33.204Z,24.00
2019-03-12T05:27:33.085Z,20.00
2019-03-12T05:28:33.417Z,28.00
2019-03-12T05:29:33.068Z,24.00
2019-03-12T05:30:33.037Z,28.00
2019-03-12T05:31:33.020Z,28.00
2019-03-12T05:32:33.076Z,32.00
2019-03-12T05:33:33.803Z,36.00
2019-03-12T05:34:33.041Z,40.00
2019-03-12T05:35:33.310Z,44.00
2019-03-12T05:36:33.064Z,48.00
2019-03-12T05:37:33.837Z,56.00
2019-03-12T05:38:33.125Z,60.00
2019-03-12T05:39:33.120Z,68.00
2019-03-12T05:40:32.955Z,76.00
2019-03-12T05:41:32.924Z,84.00
2019-03-12T05:42:33.423Z,92.00
2019-03-12T05:43:32.891Z,104.00
2019-03-12T05:44:33.080Z,116.00
2019-03-12T05:45:33.300Z,112.00
2019-03-12T05:46:32.912Z,124.00
2019-03-12T05:47:32.867Z,136.00
2019-03-12T05:48:32.851Z,148.00
2019-03-12T05:49:33.187Z,156.00
2019-03-12T05:50:33.916Z,172.00
2019-03-12T05:51:32.831Z,180.00
2019-03-12T05:52:32.887Z,196.00
2019-03-12T05:53:33.040Z,208.00
2019-03-12T05:54:32.808Z,228.00
2019-03-12T05:55:33.138Z,244.00
2019-03-12T05:56:32.919Z,264.00
2019-03-12T05:57:32.744Z,280.00
2019-03-12T05:58:32.739Z,296.00
2019-03-12T05:59:32.752Z,312.00
2019-03-12T06:00:32.732Z,332.00
2019-03-12T06:01:32.708Z,360.00
2019-03-12T06:02:33.279Z,392.00
2019-03-12T06:03:32.676Z,416.00
2019-03-12T06:04:32.670Z,448.00
2019-03-12T06:05:35.350Z,476.00
2019-03-12T06:06:32.653Z,492.00
2019-03-12T06:07:32.651Z,508.00
2019-03-12T06:08:32.777Z,520.00
2019-03-12T06:09:34.155Z,536.00
2019-03-12T06:10:32.730Z,552.00
2019-03-12T06:11:32.640Z,560.00
2019-03-12T06:12:32.595Z,540.00
2019-03-12T06:13:32.759Z,508.00
2019-03-12T06:14:32.639Z,512.00
2019-03-12T06:15:32.612Z,524.00
2019-03-12T06:16:32.933Z,536.00
2019-03-12T06:17:58.320Z,552.00
2019-03-12T06:18:53.543Z,564.00
2019-03-12T06:19:32.519Z,584.00
2019-03-12T06:20:32.768Z,596.00
2019-03-12T06:21:32.522Z,612.00
2019-03-12T06:22:32.518Z,628.00
2019-03-12T06:23:32.508Z,660.00
2019-03-12T06:24:32.465Z,692.00
2019-03-12T06:25:32.534Z,732.00
2019-03-12T06:26:32.520Z,764.00
2019-03-12T06:27:33.045Z,796.00
2019-03-12T06:28:32.441Z,820.00
2019-03-12T06:29:32.477Z,836.00
2019-03-12T06:30:32.393Z,864.00
2019-03-12T06:31:32.482Z,896.00
2019-03-12T06:32:32.479Z,932.00
2019-03-12T06:33:32.429Z,972.00
2019-03-12T06:34:32.408Z,1008.00
2019-03-12T06:35:32.383Z,1056.00
2019-03-12T06:36:32.343Z,1104.00
2019-03-12T06:37:32.504Z,1160.00
2019-03-12T06:38:32.578Z,1196.00
2019-03-12T06:39:32.333Z,1284.00
2019-03-12T06:40:32.383Z,1336.00
2019-03-12T06:41:33.422Z,1408.00
2019-03-12T06:42:33.108Z,1492.00
2019-03-12T06:43:32.271Z,1552.00
2019-03-12T06:44:32.712Z,1628.00
2019-03-12T06:45:32.273Z,1732.00
2019-03-12T06:46:32.320Z,1832.00
2019-03-12T06:47:32.558Z,1932.00
2019-03-12T06:48:32.226Z,2056.00
2019-03-12T06:49:32.232Z,2096.00
2019-03-12T06:50:32.244Z,2244.00
2019-03-12T06:51:32.248Z,2460.00
2019-03-12T06:52:32.289Z,2720.00
2019-03-12T06:53:32.582Z,2836.00
2019-03-12T06:54:32.587Z,2876.00
2019-03-12T06:55:32.149Z,2980.00
2019-03-12T06:56:32.201Z,2984.00
2019-03-12T06:57:34.814Z,2992.00
2019-03-12T06:58:32.118Z,2912.00
2019-03-12T06:59:32.212Z,2800.00
2019-03-12T07:00:33.950Z,2808.00
2019-03-12T07:01:32.472Z,2904.00
2019-03-12T07:02:40.064Z,2772.00
2019-03-12T07:03:32.071Z,2572.00
2019-03-12T07:04:32.035Z,2504.00
2019-03-12T07:05:32.142Z,2440.00
2019-03-12T07:06:32.314Z,2388.00
2019-03-12T07:07:32.023Z,2404.00
2019-03-12T07:08:33.425Z,2432.00
2019-03-12T07:09:32.059Z,2428.00
2019-03-12T07:10:46.789Z,2468.00
2019-03-12T07:11:31.975Z,2544.00
2019-03-12T07:12:31.985Z,2628.00
2019-03-12T07:13:31.947Z,2708.00
2019-03-12T07:14:32.020Z,2760.00
2019-03-12T07:15:32.880Z,2764.00
2019-03-12T07:16:32.018Z,2736.00
2019-03-12T07:17:31.944Z,2688.00
2019-03-12T07:18:31.910Z,2624.00
2019-03-12T07:19:42.959Z,2636.00
2019-03-12T07:20:32.034Z,2724.00
2019-03-12T07:21:32.567Z,2936.00
2019-03-12T07:22:31.918Z,3200.00
2019-03-12T07:23:31.886Z,3388.00
2019-03-12T07:24:31.863Z,3460.00
2019-03-12T07:25:31.874Z,3528.00
2019-03-12T07:26:31.955Z,3636.00
2019-03-12T07:27:31.878Z,3752.00
2019-03-12T07:28:32.189Z,3784.00
2019-03-12T07:29:31.787Z,3768.00
2019-03-12T07:30:31.793Z,3720.00
2019-03-12T07:31:31.876Z,3596.00
2019-03-12T07:32:33.336Z,3484.00
2019-03-12T07:33:33.009Z,3452.00
2019-03-12T07:34:36.742Z,3512.00
2019-03-12T07:35:33.394Z,3596.00
2019-03-12T07:36:31.837Z,3636.00
2019-03-12T07:37:31.709Z,3660.00
2019-03-12T07:38:31.994Z,3732.00
2019-03-12T07:39:32.240Z,3804.00
2019-03-12T07:40:32.281Z,3996.00
2019-03-12T07:41:32.875Z,4232.00
2019-03-12T07:42:33.339Z,4692.00
2019-03-12T07:43:31.656Z,5192.00
2019-03-12T07:44:31.679Z,6244.00
2019-03-12T07:45:31.642Z,6548.00
2019-03-12T07:46:31.613Z,6808.00
2019-03-12T07:47:36.095Z,8056.00
2019-03-12T07:48:31.597Z,10184.00
2019-03-12T07:49:52.810Z,12588.00
2019-03-12T07:50:31.636Z,10844.00
2019-03-12T07:51:31.851Z,10092.00
2019-03-12T07:52:31.682Z,9184.00
2019-03-12T07:53:31.946Z,7652.00
2019-03-12T07:54:33.174Z,7620.00
2019-03-12T07:55:31.875Z,8076.00
2019-03-12T07:56:31.833Z,7204.00
2019-03-12T07:57:31.522Z,8832.00
2019-03-12T07:58:35.974Z,8028.00
2019-03-12T07:59:31.745Z,7872.00
2019-03-12T08:00:31.531Z,8732.00
2019-03-12T08:01:32.775Z,8692.00
2019-03-12T08:02:31.488Z,7768.00
2019-03-12T08:03:31.421Z,9004.00
2019-03-12T08:04:31.403Z,9096.00
2019-03-12T08:05:32.397Z,8728.00
2019-03-12T08:06:31.656Z,7360.00
2019-03-12T08:07:31.414Z,6412.00
2019-03-12T08:08:31.487Z,6188.00
2019-03-12T08:09:32.165Z,6144.00
2019-03-12T08:10:33.816Z,6444.00
2019-03-12T08:11:31.361Z,6876.00
2019-03-12T08:12:34.212Z,7956.00
2019-03-12T08:13:31.787Z,8940.00
2019-03-12T08:14:31.758Z,8980.00
2019-03-12T08:15:38.827Z,8584.00
2019-03-12T08:16:31.294Z,8252.00
2019-03-12T08:17:31.658Z,8280.00
2019-03-12T08:18:31.384Z,9480.00
2019-03-12T08:19:31.276Z,10672.00
2019-03-12T08:20:31.343Z,10000.00
2019-03-12T08:21:32.284Z,9388.00
2019-03-12T08:22:34.308Z,7876.00
2019-03-12T08:23:31.198Z,7208.00
2019-03-12T08:24:31.708Z,7128.00
2019-03-12T08:25:31.298Z,7360.00
2019-03-12T08:26:31.214Z,7668.00
2019-03-12T08:27:31.198Z,8464.00
2019-03-12T08:28:31.179Z,8520.00
2019-03-12T08:29:31.275Z,8344.00
2019-03-12T08:30:31.147Z,8864.00
2019-03-12T08:31:32.775Z,9608.00
2019-03-12T08:32:31.297Z,9580.00
2019-03-12T08:33:31.090Z,8896.00
2019-03-12T08:34:31.085Z,8964.00
2019-03-12T08:35:31.065Z,9220.00
2019-03-12T08:36:31.099Z,9016.00
2019-03-12T08:37:31.434Z,8816.00
2019-03-12T08:38:31.533Z,8728.00
2019-03-12T08:39:31.082Z,8648.00
2019-03-12T08:40:31.254Z,8436.00
2019-03-12T08:41:32.738Z,8188.00
2019-03-12T08:42:32.034Z,7920.00
2019-03-12T08:43:31.079Z,7516.00
2019-03-12T08:44:31.388Z,7096.00
2019-03-12T08:45:34.466Z,6680.00
2019-03-12T08:46:32.763Z,6260.00
2019-03-12T08:47:32.539Z,5932.00
2019-03-12T08:48:31.011Z,5608.00
2019-03-12T08:49:37.606Z,5348.00
2019-03-12T08:50:31.301Z,5188.00
2019-03-12T08:51:30.937Z,5112.00
2019-03-12T08:52:31.770Z,5108.00
2019-03-12T08:53:32.240Z,4984.00
2019-03-12T08:54:30.912Z,5404.00
2019-03-12T08:55:30.912Z,5592.00
2019-03-12T08:56:32.806Z,5808.00
2019-03-12T08:57:31.556Z,6060.00
2019-03-12T08:58:30.896Z,6336.00
2019-03-12T08:59:30.871Z,6676.00
2019-03-12T09:00:30.834Z,7028.00
2019-03-12T09:01:30.897Z,7476.00
2019-03-12T09:02:32.355Z,7896.00
2019-03-12T09:03:32.784Z,8288.00
2019-03-12T09:04:33.219Z,8536.00
2019-03-12T09:05:31.155Z,8612.00
2019-03-12T09:06:41.491Z,8532.00
2019-03-12T09:07:31.031Z,8340.00
2019-03-12T09:08:30.765Z,8048.00
2019-03-12T09:09:30.743Z,7772.00
2019-03-12T09:10:30.715Z,7504.00
2019-03-12T09:11:31.200Z,7468.00
2019-03-12T09:12:31.840Z,7468.00
2019-03-12T09:13:31.078Z,7552.00
2019-03-12T09:14:30.912Z,7608.00
2019-03-12T09:15:30.709Z,7476.00
2019-03-12T09:16:30.695Z,7100.00
2019-03-12T09:17:32.153Z,6668.00
2019-03-12T09:18:31.279Z,6476.00
2019-03-12T09:19:31.138Z,6476.00
2019-03-12T09:20:30.783Z,6508.00
2019-03-12T09:21:30.568Z,6124.00
2019-03-12T09:22:30.560Z,5688.00
2019-03-12T09:23:30.547Z,5372.00
2019-03-12T09:24:30.652Z,5304.00
2019-03-12T09:25:30.588Z,5324.00
2019-03-12T09:26:30.522Z,5356.00
2019-03-12T09:27:30.589Z,5480.00
2019-03-12T09:28:30.642Z,5648.00
2019-03-12T09:29:30.553Z,5928.00
2019-03-12T09:30:30.636Z,5932.00
2019-03-12T09:31:32.711Z,6244.00
2019-03-12T09:32:30.738Z,6776.00
2019-03-12T09:33:30.638Z,7152.00
2019-03-12T09:34:30.433Z,6764.00
2019-03-12T09:35:30.416Z,7484.00
2019-03-12T09:36:30.632Z,8068.00
2019-03-12T09:37:30.920Z,7424.00
2019-03-12T09:38:30.945Z,6424.00
2019-03-12T09:39:30.437Z,6040.00
2019-03-12T09:40:30.875Z,6144.00
2019-03-12T09:41:30.653Z,5972.00
2019-03-12T09:42:30.354Z,6384.00
2019-03-12T09:43:30.371Z,7440.00
2019-03-12T09:44:30.327Z,8372.00
2019-03-12T09:45:30.310Z,9192.00
2019-03-12T09:46:30.310Z,9092.00
2019-03-12T09:47:30.287Z,8804.00
2019-03-12T09:48:30.346Z,8732.00
2019-03-12T09:49:30.715Z,8288.00
2019-03-12T09:50:30.518Z,8032.00
2019-03-12T09:51:30.401Z,7880.00
2019-03-12T09:52:30.236Z,7672.00
2019-03-12T09:53:30.225Z,7304.00
2019-03-12T09:54:30.211Z,7284.00
2019-03-12T09:55:30.229Z,7144.00
2019-03-12T09:56:30.192Z,6916.00
2019-03-12T09:57:30.182Z,6820.00
2019-03-12T09:58:30.171Z,6892.00
2019-03-12T09:59:30.157Z,7000.00
2019-03-12T10:00:30.146Z,6952.00
2019-03-12T10:01:30.382Z,6656.00
2019-03-12T10:02:30.595Z,6228.00
2019-03-12T10:03:30.137Z,6392.00
2019-03-12T10:04:30.310Z,6568.00
2019-03-12T10:05:30.095Z,6836.00
2019-03-12T10:06:30.097Z,7072.00
2019-03-12T10:07:30.110Z,7048.00
2019-03-12T10:08:30.198Z,6956.00
2019-03-12T10:09:30.519Z,7172.00
2019-03-12T10:10:30.044Z,7240.00
2019-03-12T10:11:30.030Z,6724.00
2019-03-12T10:12:30.026Z,6672.00
2019-03-12T10:13:30.045Z,6944.00
2019-03-12T10:14:30.014Z,6944.00
2019-03-12T10:15:30.244Z,6144.00
2019-03-12T10:16:30.350Z,5844.00
2019-03-12T10:17:30.088Z,7252.00
2019-03-12T10:18:29.965Z,7896.00
2019-03-12T10:19:30.082Z,8432.00
2019-03-12T10:20:29.968Z,8632.00
2019-03-12T10:21:30.374Z,8408.00
2019-03-12T10:22:29.953Z,8516.00
2019-03-12T10:23:29.915Z,8472.00
2019-03-12T10:24:29.888Z,8528.00
2019-03-12T10:25:30.024Z,8708.00
2019-03-12T10:26:30.742Z,9028.00
2019-03-12T10:27:29.972Z,9232.00
2019-03-12T10:28:29.906Z,10268.00
2019-03-12T10:29:30.253Z,10256.00
2019-03-12T10:30:29.918Z,10180.00
2019-03-12T10:31:30.114Z,10100.00
2019-03-12T10:32:29.941Z,10168.00
2019-03-12T10:33:30.085Z,10524.00
2019-03-12T10:34:30.249Z,10708.00
2019-03-12T10:35:29.779Z,10432.00
2019-03-12T10:36:31.045Z,11048.00
2019-03-12T10:37:30.014Z,11536.00
2019-03-12T10:38:29.741Z,11880.00
2019-03-12T10:39:29.747Z,11860.00
2019-03-12T10:40:29.725Z,12120.00
2019-03-12T10:41:30.179Z,12320.00
2019-03-12T10:42:29.962Z,12436.00
2019-03-12T10:43:29.846Z,12328.00
2019-03-12T10:44:29.674Z,12240.00
2019-03-12T10:45:29.800Z,11984.00
2019-03-12T10:46:30.914Z,11492.00
2019-03-12T10:47:29.745Z,10840.00
2019-03-12T10:48:29.635Z,9960.00
2019-03-12T10:49:37.562Z,11144.00
2019-03-12T10:50:30.753Z,12524.00
2019-03-12T10:51:29.600Z,13272.00
2019-03-12T10:52:29.793Z,13544.00
2019-03-12T10:53:29.690Z,13580.00
2019-03-12T10:54:29.719Z,14012.00
2019-03-12T10:55:29.730Z,14036.00
2019-03-12T10:56:29.691Z,14556.00
2019-03-12T10:57:29.532Z,15440.00
2019-03-12T10:58:29.666Z,16052.00
2019-03-12T10:59:29.796Z,16452.00
2019-03-12T11:00:29.589Z,16492.00
2019-03-12T11:01:30.278Z,18144.00
2019-03-12T11:02:29.557Z,20960.00
2019-03-12T11:03:29.546Z,20864.00
2019-03-12T11:04:29.567Z,18560.00
2019-03-12T11:05:29.489Z,17120.00
2019-03-12T11:06:29.449Z,15288.00
2019-03-12T11:07:29.486Z,17856.00
2019-03-12T11:08:29.540Z,15428.00
2019-03-12T11:09:29.482Z,14016.00
2019-03-12T11:10:29.413Z,13776.00
2019-03-12T11:11:29.839Z,12668.00
2019-03-12T11:12:29.381Z,10968.00
2019-03-12T11:13:29.413Z,10364.00
2019-03-12T11:14:29.353Z,10300.00
2019-03-12T11:15:29.345Z,10252.00
2019-03-12T11:16:29.340Z,10148.00
2019-03-12T11:17:29.388Z,10132.00
2019-03-12T11:18:29.735Z,10328.00
2019-03-12T11:19:29.531Z,10540.00
2019-03-12T11:20:29.293Z,10556.00
2019-03-12T11:21:29.296Z,10644.00
2019-03-12T11:22:29.433Z,10536.00
2019-03-12T11:23:29.605Z,10832.00
2019-03-12T11:24:29.251Z,10968.00
2019-03-12T11:25:29.663Z,10408.00
2019-03-12T11:26:29.251Z,10236.00
2019-03-12T11:27:29.213Z,10120.00
2019-03-12T11:28:29.221Z,10088.00
2019-03-12T11:29:29.203Z,9852.00
2019-03-12T11:30:29.182Z,9992.00
2019-03-12T11:31:29.331Z,9988.00
2019-03-12T11:32:29.162Z,10216.00
2019-03-12T11:33:29.301Z,10364.00
2019-03-12T11:34:29.263Z,11084.00
2019-03-12T11:35:38.736Z,10456.00
2019-03-12T11:36:31.663Z,10104.00
2019-03-12T11:37:29.738Z,10060.00
2019-03-12T11:38:29.575Z,10104.00
2019-03-12T11:39:29.160Z,9848.00
2019-03-12T11:40:32.533Z,10332.00
2019-03-12T11:41:29.857Z,11596.00
2019-03-12T11:42:29.529Z,12008.00
2019-03-12T11:43:29.142Z,11352.00
2019-03-12T11:44:29.097Z,11128.00
2019-03-12T11:45:36.333Z,10940.00
2019-03-12T11:46:40.695Z,10496.00
2019-03-12T11:47:30.035Z,10176.00
2019-03-12T11:48:29.291Z,9896.00
2019-03-12T11:49:29.236Z,9564.00
2019-03-12T11:50:29.477Z,9460.00
2019-03-12T11:51:29.035Z,10876.00
2019-03-12T11:52:28.947Z,10572.00
2019-03-12T11:53:29.027Z,8680.00
2019-03-12T11:54:29.026Z,8460.00
2019-03-12T11:55:28.947Z,8240.00
2019-03-12T11:56:28.928Z,7552.00
2019-03-12T11:57:28.982Z,7196.00
2019-03-12T11:58:28.951Z,6772.00
2019-03-12T11:59:29.024Z,6620.00
2019-03-12T12:00:29.147Z,6764.00
2019-03-12T12:01:28.985Z,6412.00
2019-03-12T12:02:29.706Z,6240.00
2019-03-12T12:03:29.699Z,6304.00
2019-03-12T12:04:29.237Z,6440.00
2019-03-12T12:05:28.933Z,6824.00
2019-03-12T12:06:30.165Z,8040.00
2019-03-12T12:07:28.984Z,9968.00
2019-03-12T12:08:28.790Z,9832.00
2019-03-12T12:09:28.877Z,11092.00
2019-03-12T12:10:28.762Z,12692.00
2019-03-12T12:11:28.766Z,12992.00
2019-03-12T12:12:29.856Z,12656.00
2019-03-12T12:13:28.722Z,13220.00
2019-03-12T12:14:28.881Z,15100.00
2019-03-12T12:15:29.290Z,14708.00
2019-03-12T12:16:29.161Z,14168.00
2019-03-12T12:17:29.429Z,12996.00
2019-03-12T12:18:28.716Z,11124.00
2019-03-12T12:19:28.809Z,9748.00
2019-03-12T12:20:30.353Z,8596.00
2019-03-12T12:21:28.847Z,7776.00
2019-03-12T12:22:29.709Z,8332.00
2019-03-12T12:23:28.896Z,9684.00
2019-03-12T12:24:28.748Z,11308.00
2019-03-12T12:25:28.598Z,10268.00
2019-03-12T12:26:28.718Z,10128.00
2019-03-12T12:27:28.577Z,9272.00
2019-03-12T12:28:28.573Z,8824.00
2019-03-12T12:29:28.564Z,8716.00
2019-03-12T12:30:28.581Z,8840.00
2019-03-12T12:31:28.573Z,8480.00
2019-03-12T12:32:28.524Z,7976.00
2019-03-12T12:33:28.601Z,7652.00
2019-03-12T12:34:28.512Z,7572.00
2019-03-12T12:35:29.097Z,7492.00
2019-03-12T12:36:28.628Z,7508.00
2019-03-12T12:37:28.470Z,7808.00
2019-03-12T12:38:28.464Z,7956.00
2019-03-12T12:39:28.446Z,8396.00
2019-03-12T12:40:28.435Z,8560.00
2019-03-12T12:41:28.496Z,9236.00
2019-03-12T12:42:28.496Z,8328.00
2019-03-12T12:43:28.412Z,7676.00
2019-03-12T12:44:28.533Z,7040.00
2019-03-12T12:45:28.400Z,6632.00
2019-03-12T12:46:28.814Z,6464.00
2019-03-12T12:47:28.375Z,6476.00
2019-03-12T12:48:28.726Z,6504.00
2019-03-12T12:49:28.364Z,6988.00
2019-03-12T12:50:28.370Z,7396.00
2019-03-12T12:51:28.332Z,8648.00
2019-03-12T12:52:28.318Z,9784.00
2019-03-12T12:53:28.645Z,12616.00
2019-03-12T12:54:28.432Z,9032.00
2019-03-12T12:55:28.280Z,8192.00
2019-03-12T12:56:28.265Z,7108.00
2019-03-12T12:57:28.269Z,6568.00
2019-03-12T12:58:28.250Z,6156.00
2019-03-12T12:59:28.243Z,5972.00
2019-03-12T13:00:28.796Z,5736.00
2019-03-12T13:01:28.739Z,5556.00
2019-03-12T13:02:28.212Z,5468.00
2019-03-12T13:03:28.209Z,5304.00
2019-03-12T13:04:28.190Z,5268.00
2019-03-12T13:05:28.191Z,5464.00
2019-03-12T13:06:28.520Z,5528.00
2019-03-12T13:07:28.149Z,5508.00
2019-03-12T13:08:28.143Z,5920.00
2019-03-12T13:09:28.149Z,5940.00
2019-03-12T13:10:28.234Z,6032.00
2019-03-12T13:11:28.118Z,5928.00
2019-03-12T13:12:28.179Z,5600.00
2019-03-12T13:13:28.085Z,5220.00
2019-03-12T13:14:40.776Z,5076.00
2019-03-12T13:15:29.077Z,5160.00
2019-03-12T13:16:28.093Z,5356.00
2019-03-12T13:17:28.066Z,5580.00
2019-03-12T13:18:28.105Z,5508.00
2019-03-12T13:19:28.421Z,5276.00
2019-03-12T13:20:28.062Z,4992.00
2019-03-12T13:21:28.758Z,4756.00
2019-03-12T13:22:28.100Z,4708.00
2019-03-12T13:23:28.309Z,4892.00
2019-03-12T13:24:28.129Z,5184.00
2019-03-12T13:25:27.968Z,5804.00
2019-03-12T13:26:28.021Z,6324.00
2019-03-12T13:27:27.986Z,6460.00
2019-03-12T13:28:29.689Z,6364.00
2019-03-12T13:29:27.927Z,6324.00
2019-03-12T13:30:27.951Z,6532.00
2019-03-12T13:31:27.918Z,6692.00
2019-03-12T13:32:28.176Z,6712.00
2019-03-12T13:33:27.979Z,6988.00
2019-03-12T13:34:28.122Z,7296.00
2019-03-12T13:35:27.937Z,7480.00
2019-03-12T13:36:28.687Z,7708.00
2019-03-12T13:37:27.852Z,7736.00
2019-03-12T13:38:28.401Z,7460.00
2019-03-12T13:39:27.863Z,7132.00
2019-03-12T13:40:27.821Z,6788.00
2019-03-12T13:41:28.153Z,6552.00
2019-03-12T13:42:27.878Z,6364.00
2019-03-12T13:43:28.047Z,6248.00
2019-03-12T13:44:28.815Z,6352.00
2019-03-12T13:45:28.687Z,6512.00
2019-03-12T13:46:27.729Z,6800.00
2019-03-12T13:47:29.663Z,7048.00
2019-03-12T13:48:27.825Z,7144.00
2019-03-12T13:49:28.246Z,7568.00
2019-03-12T13:50:27.743Z,7724.00
2019-03-12T13:51:27.685Z,7596.00
2019-03-12T13:52:28.461Z,7316.00
2019-03-12T13:53:27.662Z,6904.00
2019-03-12T13:54:27.853Z,6404.00
2019-03-12T13:55:27.646Z,5936.00
2019-03-12T13:56:27.743Z,5592.00
2019-03-12T13:57:27.979Z,5216.00
2019-03-12T13:58:28.220Z,4924.00
2019-03-12T13:59:28.183Z,4664.00
2019-03-12T14:00:27.869Z,4492.00
2019-03-12T14:01:27.578Z,4524.00
2019-03-12T14:02:27.592Z,4704.00
2019-03-12T14:03:27.582Z,4928.00
2019-03-12T14:04:27.844Z,5220.00
2019-03-12T14:05:28.262Z,5628.00